sensor_id;sensor_type;location;lat;lon;timestamp;pressure;altitude;pressure_sealevel;temperature;humidity
35489;BME280;21602;55.670;37.578;2023-09-08T00:02:09;99595.59;;;12.93;70.89
35489;BME280;21602;55.670;37.578;2023-09-08T00:04:35;99581.06;;;12.89;70.99
35489;BME280;21602;55.670;37.578;2023-09-08T00:07:01;99581.53;;;12.86;71.13
35489;BME280;21602;55.670;37.578;2023-09-08T00:09:28;99572.22;;;12.88;70.90
35489;BME280;21602;55.670;37.578;2023-09-08T00:11:54;99577.06;;;12.91;71.04
35489;BME280;21602;55.670;37.578;2023-09-08T00:14:20;99568.56;;;12.94;70.82
35489;BME280;21602;55.670;37.578;2023-09-08T00:16:46;99570.75;;;12.97;70.95
35489;BME280;21602;55.670;37.578;2023-09-08T00:19:12;99568.81;;;12.93;70.80
35489;BME280;21602;55.670;37.578;2023-09-08T00:21:38;99569.78;;;12.87;70.86
35489;BME280;21602;55.670;37.578;2023-09-08T00:24:04;99565.88;;;12.77;71.27
35489;BME280;21602;55.670;37.578;2023-09-08T00:26:30;99569.38;;;12.78;71.22
35489;BME280;21602;55.670;37.578;2023-09-08T00:28:56;99565.97;;;12.82;71.46
35489;BME280;21602;55.670;37.578;2023-09-08T00:31:22;99575.03;;;12.81;71.48
35489;BME280;21602;55.670;37.578;2023-09-08T00:33:48;99568.88;;;12.81;71.41
35489;BME280;21602;55.670;37.578;2023-09-08T00:36:14;99568.38;;;12.84;71.59
35489;BME280;21602;55.670;37.578;2023-09-08T00:38:40;99570.50;;;12.82;71.42
35489;BME280;21602;55.670;37.578;2023-09-08T00:41:07;99569.59;;;12.76;71.66
35489;BME280;21602;55.670;37.578;2023-09-08T00:43:33;99565.47;;;12.69;72.07
35489;BME280;21602;55.670;37.578;2023-09-08T00:46:00;99567.81;;;12.65;72.21
35489;BME280;21602;55.670;37.578;2023-09-08T00:48:29;99558.06;;;12.59;72.13
35489;BME280;21602;55.670;37.578;2023-09-08T00:50:55;99565.50;;;12.57;72.68
35489;BME280;21602;55.670;37.578;2023-09-08T00:53:21;99565.50;;;12.57;72.58
35489;BME280;21602;55.670;37.578;2023-09-08T00:55:50;99557.72;;;12.55;72.91
35489;BME280;21602;55.670;37.578;2023-09-08T00:58:17;99559.34;;;12.56;73.20
35489;BME280;21602;55.670;37.578;2023-09-08T01:00:43;99559.59;;;12.55;72.94
35489;BME280;21602;55.670;37.578;2023-09-08T01:03:13;99550.75;;;12.54;73.41
35489;BME280;21602;55.670;37.578;2023-09-08T01:05:39;99555.84;;;12.56;73.24
35489;BME280;21602;55.670;37.578;2023-09-08T01:08:08;99551.56;;;12.55;73.63
35489;BME280;21602;55.670;37.578;2023-09-08T01:10:34;99552.13;;;12.57;73.54
35489;BME280;21602;55.670;37.578;2023-09-08T01:13:03;99545.63;;;12.53;73.69
35489;BME280;21602;55.670;37.578;2023-09-08T01:15:29;99543.53;;;12.55;73.91
35489;BME280;21602;55.670;37.578;2023-09-08T01:17:55;99542.56;;;12.61;73.86
35489;BME280;21602;55.670;37.578;2023-09-08T01:20:33;99549.06;;;12.65;73.77
35489;BME280;21602;55.670;37.578;2023-09-08T01:23:35;99546.84;;;12.62;74.12
35489;BME280;21602;55.670;37.578;2023-09-08T01:26:10;99547.25;;;12.54;74.03
35489;BME280;21602;55.670;37.578;2023-09-08T01:28:39;99541.81;;;12.49;74.38
35489;BME280;21602;55.670;37.578;2023-09-08T01:31:07;99545.13;;;12.39;74.79
35489;BME280;21602;55.670;37.578;2023-09-08T01:33:33;99537.47;;;12.31;74.96
35489;BME280;21602;55.670;37.578;2023-09-08T01:35:59;99541.69;;;12.27;75.35
35489;BME280;21602;55.670;37.578;2023-09-08T01:38:25;99544.53;;;12.20;75.70
35489;BME280;21602;55.670;37.578;2023-09-08T01:40:52;99538.09;;;12.21;75.90
35489;BME280;21602;55.670;37.578;2023-09-08T01:43:19;99537.22;;;12.16;76.19
35489;BME280;21602;55.670;37.578;2023-09-08T01:45:45;99534.31;;;12.05;77.62
35489;BME280;21602;55.670;37.578;2023-09-08T01:48:11;99540.63;;;11.99;78.57
35489;BME280;21602;55.670;37.578;2023-09-08T01:50:37;99536.59;;;11.85;79.97
35489;BME280;21602;55.670;37.578;2023-09-08T01:53:03;99534.41;;;11.70;79.82
35489;BME280;21602;55.670;37.578;2023-09-08T01:55:29;99541.41;;;11.60;82.15
35489;BME280;21602;55.670;37.578;2023-09-08T01:57:57;99539.31;;;11.50;82.14
35489;BME280;21602;55.670;37.578;2023-09-08T02:00:23;99542.91;;;11.44;82.56
35489;BME280;21602;55.670;37.578;2023-09-08T02:02:50;99523.19;;;11.33;83.79
35489;BME280;21602;55.670;37.578;2023-09-08T02:05:17;99518.88;;;11.32;83.58
35489;BME280;21602;55.670;37.578;2023-09-08T02:07:43;99517.38;;;11.24;84.58
35489;BME280;21602;55.670;37.578;2023-09-08T02:10:09;99513.78;;;11.19;85.35
35489;BME280;21602;55.670;37.578;2023-09-08T02:12:37;99511.69;;;11.21;85.04
35489;BME280;21602;55.670;37.578;2023-09-08T02:15:05;99507.38;;;11.32;85.66
35489;BME280;21602;55.670;37.578;2023-09-08T02:17:34;99512.00;;;11.48;84.98
35489;BME280;21602;55.670;37.578;2023-09-08T02:20:00;99504.22;;;11.46;84.59
35489;BME280;21602;55.670;37.578;2023-09-08T02:22:26;99505.16;;;11.40;84.96
35489;BME280;21602;55.670;37.578;2023-09-08T02:24:52;99497.84;;;11.36;85.27
35489;BME280;21602;55.670;37.578;2023-09-08T02:27:19;99497.03;;;11.35;85.12
35489;BME280;21602;55.670;37.578;2023-09-08T02:29:47;99498.19;;;11.39;85.54
35489;BME280;21602;55.670;37.578;2023-09-08T02:32:13;99490.28;;;11.33;85.49
35489;BME280;21602;55.670;37.578;2023-09-08T02:34:40;99484.94;;;11.33;85.76
35489;BME280;21602;55.670;37.578;2023-09-08T02:37:09;99481.56;;;11.37;85.63
35489;BME280;21602;55.670;37.578;2023-09-08T02:39:35;99473.56;;;11.37;85.65
35489;BME280;21602;55.670;37.578;2023-09-08T02:42:02;99470.44;;;11.28;86.73
35489;BME280;21602;55.670;37.578;2023-09-08T02:44:28;99470.44;;;11.28;86.42
35489;BME280;21602;55.670;37.578;2023-09-08T02:46:55;99468.66;;;11.34;86.10
35489;BME280;21602;55.670;37.578;2023-09-08T02:49:21;99467.97;;;11.39;86.18
35489;BME280;21602;55.670;37.578;2023-09-08T02:51:48;99469.72;;;11.45;86.44
35489;BME280;21602;55.670;37.578;2023-09-08T02:54:14;99469.72;;;11.45;86.33
35489;BME280;21602;55.670;37.578;2023-09-08T02:56:40;99470.97;;;11.42;86.02
35489;BME280;21602;55.670;37.578;2023-09-08T02:59:06;99470.97;;;11.42;86.61
35489;BME280;21602;55.670;37.578;2023-09-08T03:01:31;99468.91;;;11.44;86.43
35489;BME280;21602;55.670;37.578;2023-09-08T03:03:58;99470.19;;;11.42;86.76
35489;BME280;21602;55.670;37.578;2023-09-08T03:06:24;99467.84;;;11.45;86.81
35489;BME280;21602;55.670;37.578;2023-09-08T03:08:50;99468.19;;;11.49;86.46
35489;BME280;21602;55.670;37.578;2023-09-08T03:11:16;99471.19;;;11.52;86.62
35489;BME280;21602;55.670;37.578;2023-09-08T03:13:42;99460.84;;;11.56;86.25
35489;BME280;21602;55.670;37.578;2023-09-08T03:16:09;99462.47;;;11.57;86.16
35489;BME280;21602;55.670;37.578;2023-09-08T03:18:37;99461.41;;;11.58;86.05
35489;BME280;21602;55.670;37.578;2023-09-08T03:21:03;99461.31;;;11.53;86.18
35489;BME280;21602;55.670;37.578;2023-09-08T03:23:40;99461.31;;;11.53;86.58
35489;BME280;21602;55.670;37.578;2023-09-08T03:26:07;99463.88;;;11.48;86.25
35489;BME280;21602;55.670;37.578;2023-09-08T03:28:34;99463.88;;;11.48;86.40
35489;BME280;21602;55.670;37.578;2023-09-08T03:31:04;99451.56;;;11.47;86.31
35489;BME280;21602;55.670;37.578;2023-09-08T03:33:34;99461.78;;;11.50;86.31
35489;BME280;21602;55.670;37.578;2023-09-08T03:36:01;99453.09;;;11.43;85.86
35489;BME280;21602;55.670;37.578;2023-09-08T03:38:27;99455.28;;;11.46;86.41
35489;BME280;21602;55.670;37.578;2023-09-08T03:40:55;99449.00;;;11.52;86.40
35489;BME280;21602;55.670;37.578;2023-09-08T03:43:21;99454.78;;;11.61;86.22
35489;BME280;21602;55.670;37.578;2023-09-08T03:45:47;99447.19;;;11.69;85.96
35489;BME280;21602;55.670;37.578;2023-09-08T03:48:13;99443.31;;;11.77;85.86
35489;BME280;21602;55.670;37.578;2023-09-08T03:50:40;99440.97;;;11.80;85.66
35489;BME280;21602;55.670;37.578;2023-09-08T03:53:06;99452.50;;;11.81;85.04
35489;BME280;21602;55.670;37.578;2023-09-08T03:55:32;99439.84;;;11.76;85.29
35489;BME280;21602;55.670;37.578;2023-09-08T03:57:58;99443.09;;;11.78;85.20
35489;BME280;21602;55.670;37.578;2023-09-08T04:00:24;99439.59;;;11.90;85.72
35489;BME280;21602;55.670;37.578;2023-09-08T04:02:51;99436.03;;;12.01;85.06
35489;BME280;21602;55.670;37.578;2023-09-08T04:05:17;99435.00;;;12.02;84.54
35489;BME280;21602;55.670;37.578;2023-09-08T04:07:47;99434.75;;;12.03;84.58
35489;BME280;21602;55.670;37.578;2023-09-08T04:10:13;99434.03;;;12.08;84.41
35489;BME280;21602;55.670;37.578;2023-09-08T04:12:40;99432.63;;;12.05;83.56
35489;BME280;21602;55.670;37.578;2023-09-08T04:15:08;99423.25;;;12.03;83.62
35489;BME280;21602;55.670;37.578;2023-09-08T04:17:35;99437.34;;;11.98;83.23
35489;BME280;21602;55.670;37.578;2023-09-08T04:20:03;99432.88;;;12.04;83.49
35489;BME280;21602;55.670;37.578;2023-09-08T04:22:34;99426.38;;;12.00;83.50
35489;BME280;21602;55.670;37.578;2023-09-08T04:25:01;99425.97;;;11.91;83.12
35489;BME280;21602;55.670;37.578;2023-09-08T04:27:35;99431.66;;;11.95;83.11
35489;BME280;21602;55.670;37.578;2023-09-08T04:30:04;99432.38;;;11.90;82.93
35489;BME280;21602;55.670;37.578;2023-09-08T04:32:33;99427.72;;;11.86;82.99
35489;BME280;21602;55.670;37.578;2023-09-08T04:34:59;99423.53;;;11.90;83.14
35489;BME280;21602;55.670;37.578;2023-09-08T04:37:25;99421.91;;;11.89;82.03
35489;BME280;21602;55.670;37.578;2023-09-08T04:39:51;99423.06;;;11.93;82.50
35489;BME280;21602;55.670;37.578;2023-09-08T04:42:17;99419.78;;;11.91;81.86
35489;BME280;21602;55.670;37.578;2023-09-08T04:44:43;99403.13;;;12.00;82.50
35489;BME280;21602;55.670;37.578;2023-09-08T04:47:09;99410.03;;;12.13;81.30
35489;BME280;21602;55.670;37.578;2023-09-08T04:49:35;99417.59;;;12.16;80.98
35489;BME280;21602;55.670;37.578;2023-09-08T04:52:03;99408.66;;;12.11;80.53
35489;BME280;21602;55.670;37.578;2023-09-08T04:54:35;99402.97;;;12.07;80.09
35489;BME280;21602;55.670;37.578;2023-09-08T04:57:02;99406.22;;;12.09;80.25
35489;BME280;21602;55.670;37.578;2023-09-08T04:59:28;99414.91;;;12.16;80.51
35489;BME280;21602;55.670;37.578;2023-09-08T05:01:54;99409.94;;;12.08;79.54
35489;BME280;21602;55.670;37.578;2023-09-08T05:04:22;99406.81;;;12.11;79.81
35489;BME280;21602;55.670;37.578;2023-09-08T05:06:51;99400.53;;;12.05;79.77
35489;BME280;21602;55.670;37.578;2023-09-08T05:09:27;99400.78;;;12.04;79.72
35489;BME280;21602;55.670;37.578;2023-09-08T05:12:04;99399.25;;;12.08;79.82
35489;BME280;21602;55.670;37.578;2023-09-08T05:14:38;99396.97;;;12.17;79.37
35489;BME280;21602;55.670;37.578;2023-09-08T05:17:04;99389.28;;;12.20;79.23
35489;BME280;21602;55.670;37.578;2023-09-08T05:19:30;99394.88;;;12.36;79.04
35489;BME280;21602;55.670;37.578;2023-09-08T05:22:00;99382.72;;;12.45;78.07
35489;BME280;21602;55.670;37.578;2023-09-08T05:24:26;99388.22;;;12.55;77.92
35489;BME280;21602;55.670;37.578;2023-09-08T05:26:53;99388.38;;;12.32;76.89
35489;BME280;21602;55.670;37.578;2023-09-08T05:29:20;99385.56;;;12.21;77.49
35489;BME280;21602;55.670;37.578;2023-09-08T05:31:46;99389.03;;;12.22;77.42
35489;BME280;21602;55.670;37.578;2023-09-08T05:34:16;99370.03;;;12.23;76.64
35489;BME280;21602;55.670;37.578;2023-09-08T05:36:45;99373.38;;;12.30;76.59
35489;BME280;21602;55.670;37.578;2023-09-08T05:39:18;99370.13;;;12.28;76.35
35489;BME280;21602;55.670;37.578;2023-09-08T05:41:45;99370.28;;;12.39;76.22
35489;BME280;21602;55.670;37.578;2023-09-08T05:44:11;99379.13;;;12.22;76.49
35489;BME280;21602;55.670;37.578;2023-09-08T05:46:40;99374.13;;;12.26;76.51
35489;BME280;21602;55.670;37.578;2023-09-08T05:49:10;99358.69;;;12.33;76.26
35489;BME280;21602;55.670;37.578;2023-09-08T05:51:40;99365.34;;;12.30;76.05
35489;BME280;21602;55.670;37.578;2023-09-08T05:54:10;99360.00;;;12.30;76.24
35489;BME280;21602;55.670;37.578;2023-09-08T05:56:40;99359.41;;;12.28;75.89
35489;BME280;21602;55.670;37.578;2023-09-08T05:59:10;99348.41;;;12.25;75.61
35489;BME280;21602;55.670;37.578;2023-09-08T06:01:37;99345.41;;;12.21;75.48
35489;BME280;21602;55.670;37.578;2023-09-08T06:04:09;99338.91;;;12.17;75.41
35489;BME280;21602;55.670;37.578;2023-09-08T06:06:37;99338.75;;;12.24;75.57
35489;BME280;21602;55.670;37.578;2023-09-08T06:11:49;99343.09;;;12.47;75.49
35489;BME280;21602;55.670;37.578;2023-09-08T06:14:15;99353.88;;;12.52;74.02
35489;BME280;21602;55.670;37.578;2023-09-08T06:16:50;99333.03;;;12.54;74.30
35489;BME280;21602;55.670;37.578;2023-09-08T06:19:29;99333.59;;;12.56;74.43
35489;BME280;21602;55.670;37.578;2023-09-08T06:21:55;99337.00;;;12.68;73.35
35489;BME280;21602;55.670;37.578;2023-09-08T06:24:21;99330.22;;;12.82;73.54
35489;BME280;21602;55.670;37.578;2023-09-08T06:26:51;99329.38;;;13.04;72.03
35489;BME280;21602;55.670;37.578;2023-09-08T06:29:18;99323.97;;;13.21;72.39
35489;BME280;21602;55.670;37.578;2023-09-08T06:31:46;99327.09;;;13.35;71.26
35489;BME280;21602;55.670;37.578;2023-09-08T06:34:12;99328.91;;;13.29;70.06
35489;BME280;21602;55.670;37.578;2023-09-08T06:36:41;99308.31;;;13.13;69.67
35489;BME280;21602;55.670;37.578;2023-09-08T06:39:10;99316.84;;;13.10;69.95
35489;BME280;21602;55.670;37.578;2023-09-08T06:41:38;99312.22;;;13.22;70.46
35489;BME280;21602;55.670;37.578;2023-09-08T06:44:05;99310.22;;;13.34;69.40
35489;BME280;21602;55.670;37.578;2023-09-08T06:46:34;99316.88;;;13.31;68.36
35489;BME280;21602;55.670;37.578;2023-09-08T06:48:59;99305.28;;;13.26;68.24
35489;BME280;21602;55.670;37.578;2023-09-08T06:51:25;99303.63;;;13.47;68.67
35489;BME280;21602;55.670;37.578;2023-09-08T06:53:55;99301.81;;;13.57;67.07
35489;BME280;21602;55.670;37.578;2023-09-08T06:56:23;99295.06;;;13.50;67.14
35489;BME280;21602;55.670;37.578;2023-09-08T06:58:51;99313.13;;;13.32;66.22
35489;BME280;21602;55.670;37.578;2023-09-08T07:01:17;99294.31;;;13.27;66.55
35489;BME280;21602;55.670;37.578;2023-09-08T07:03:43;99291.97;;;13.36;66.54
35489;BME280;21602;55.670;37.578;2023-09-08T07:06:10;99275.34;;;13.34;66.17
35489;BME280;21602;55.670;37.578;2023-09-08T07:08:35;99267.84;;;13.36;66.87
35489;BME280;21602;55.670;37.578;2023-09-08T07:11:01;99272.16;;;13.37;66.92
35489;BME280;21602;55.670;37.578;2023-09-08T07:13:30;99276.69;;;13.37;67.01
35489;BME280;21602;55.670;37.578;2023-09-08T07:16:00;99266.19;;;13.30;67.13
35489;BME280;21602;55.670;37.578;2023-09-08T07:18:27;99268.25;;;13.23;66.67
35489;BME280;21602;55.670;37.578;2023-09-08T07:20:54;99266.16;;;13.25;66.73
35489;BME280;21602;55.670;37.578;2023-09-08T07:23:30;99262.13;;;13.27;66.86
35489;BME280;21602;55.670;37.578;2023-09-08T07:25:56;99259.00;;;13.36;66.81
35489;BME280;21602;55.670;37.578;2023-09-08T07:28:25;99245.16;;;13.44;66.23
35489;BME280;21602;55.670;37.578;2023-09-08T07:30:52;99249.78;;;13.53;65.58
35489;BME280;21602;55.670;37.578;2023-09-08T07:33:19;99265.13;;;13.58;64.32
35489;BME280;21602;55.670;37.578;2023-09-08T07:35:48;99258.72;;;13.64;63.94
35489;BME280;21602;55.670;37.578;2023-09-08T07:38:14;99248.72;;;13.54;63.72
35489;BME280;21602;55.670;37.578;2023-09-08T07:40:41;99238.56;;;13.62;64.48
35489;BME280;21602;55.670;37.578;2023-09-08T07:43:07;99246.97;;;13.70;64.03
35489;BME280;21602;55.670;37.578;2023-09-08T07:45:33;99237.97;;;13.87;64.11
35489;BME280;21602;55.670;37.578;2023-09-08T07:47:59;99244.78;;;14.04;63.83
35489;BME280;21602;55.670;37.578;2023-09-08T07:50:26;99247.50;;;14.09;62.52
35489;BME280;21602;55.670;37.578;2023-09-08T07:52:54;99244.03;;;14.14;62.25
35489;BME280;21602;55.670;37.578;2023-09-08T07:55:24;99244.84;;;14.15;62.11
35489;BME280;21602;55.670;37.578;2023-09-08T07:57:57;99229.59;;;14.20;61.70
35489;BME280;21602;55.670;37.578;2023-09-08T08:00:23;99222.91;;;14.28;62.18
35489;BME280;21602;55.670;37.578;2023-09-08T08:02:59;99223.78;;;14.39;62.04
35489;BME280;21602;55.670;37.578;2023-09-08T08:05:26;99210.66;;;14.47;61.32
35489;BME280;21602;55.670;37.578;2023-09-08T08:07:52;99231.34;;;14.47;60.76
35489;BME280;21602;55.670;37.578;2023-09-08T08:10:33;99197.75;;;14.39;61.39
35489;BME280;21602;55.670;37.578;2023-09-08T08:12:59;99205.81;;;14.44;61.40
35489;BME280;21602;55.670;37.578;2023-09-08T08:15:35;99202.16;;;14.66;61.27
35489;BME280;21602;55.670;37.578;2023-09-08T08:18:04;99200.06;;;14.78;60.58
35489;BME280;21602;55.670;37.578;2023-09-08T08:20:30;99192.31;;;15.02;60.39
35489;BME280;21602;55.670;37.578;2023-09-08T08:23:01;99180.19;;;14.94;59.17
35489;BME280;21602;55.670;37.578;2023-09-08T08:25:30;99199.00;;;14.94;59.06
35489;BME280;21602;55.670;37.578;2023-09-08T08:28:17;99178.31;;;14.84;59.39
35489;BME280;21602;55.670;37.578;2023-09-08T08:30:43;99153.88;;;14.86;59.07
35489;BME280;21602;55.670;37.578;2023-09-08T08:33:15;99163.00;;;14.95;58.97
35489;BME280;21602;55.670;37.578;2023-09-08T08:35:58;99169.75;;;15.03;58.79
35489;BME280;21602;55.670;37.578;2023-09-08T08:38:25;99166.53;;;15.01;58.81
35489;BME280;21602;55.670;37.578;2023-09-08T08:40:52;99158.19;;;15.02;58.98
35489;BME280;21602;55.670;37.578;2023-09-08T08:43:18;99159.53;;;15.10;59.01
35489;BME280;21602;55.670;37.578;2023-09-08T08:45:46;99154.16;;;15.10;58.74
35489;BME280;21602;55.670;37.578;2023-09-08T08:48:18;99162.75;;;15.12;59.02
35489;BME280;21602;55.670;37.578;2023-09-08T08:50:47;99160.06;;;15.17;59.36
35489;BME280;21602;55.670;37.578;2023-09-08T08:53:20;99157.38;;;15.17;58.56
35489;BME280;21602;55.670;37.578;2023-09-08T08:55:47;99145.78;;;14.81;59.72
35489;BME280;21602;55.670;37.578;2023-09-08T08:58:15;99137.16;;;14.74;60.02
35489;BME280;21602;55.670;37.578;2023-09-08T09:00:46;99140.38;;;14.76;60.14
35489;BME280;21602;55.670;37.578;2023-09-08T09:03:21;99142.81;;;14.67;60.19
35489;BME280;21602;55.670;37.578;2023-09-08T09:05:51;99131.00;;;14.78;60.45
35489;BME280;21602;55.670;37.578;2023-09-08T09:08:24;99128.59;;;14.92;60.30
35489;BME280;21602;55.670;37.578;2023-09-08T09:10:58;99132.38;;;14.96;60.53
35489;BME280;21602;55.670;37.578;2023-09-08T09:13:28;99112.19;;;15.09;60.68
35489;BME280;21602;55.670;37.578;2023-09-08T09:15:58;99125.41;;;15.16;60.40
35489;BME280;21602;55.670;37.578;2023-09-08T09:18:25;99135.59;;;15.14;60.62
35489;BME280;21602;55.670;37.578;2023-09-08T09:20:57;99133.75;;;15.19;60.55
35489;BME280;21602;55.670;37.578;2023-09-08T09:23:34;99109.53;;;15.29;60.57
35489;BME280;21602;55.670;37.578;2023-09-08T09:26:02;99112.22;;;15.34;60.74
35489;BME280;21602;55.670;37.578;2023-09-08T09:28:31;99115.16;;;15.53;61.03
35489;BME280;21602;55.670;37.578;2023-09-08T09:30:57;99099.53;;;15.55;60.60
35489;BME280;21602;55.670;37.578;2023-09-08T09:33:23;99114.06;;;15.65;60.55
35489;BME280;21602;55.670;37.578;2023-09-08T09:35:52;99109.50;;;15.70;60.91
35489;BME280;21602;55.670;37.578;2023-09-08T09:38:19;99136.13;;;15.77;60.78
35489;BME280;21602;55.670;37.578;2023-09-08T09:40:49;99109.78;;;15.64;61.03
35489;BME280;21602;55.670;37.578;2023-09-08T09:43:20;99123.47;;;15.52;61.54
35489;BME280;21602;55.670;37.578;2023-09-08T09:45:47;99121.09;;;15.20;62.09
35489;BME280;21602;55.670;37.578;2023-09-08T09:48:19;99113.56;;;15.11;62.42
35489;BME280;21602;55.670;37.578;2023-09-08T09:50:45;99120.25;;;14.89;63.30
35489;BME280;21602;55.670;37.578;2023-09-08T09:53:13;99120.25;;;14.78;64.27
35489;BME280;21602;55.670;37.578;2023-09-08T09:55:43;99112.19;;;14.73;64.68
35489;BME280;21602;55.670;37.578;2023-09-08T09:58:10;99110.59;;;14.82;64.38
35489;BME280;21602;55.670;37.578;2023-09-08T10:00:39;99103.63;;;14.87;64.80
35489;BME280;21602;55.670;37.578;2023-09-08T10:03:13;99099.84;;;14.82;65.00
35489;BME280;21602;55.670;37.578;2023-09-08T10:05:42;99101.97;;;14.91;65.28
35489;BME280;21602;55.670;37.578;2023-09-08T10:08:11;99103.84;;;14.85;65.44
35489;BME280;21602;55.670;37.578;2023-09-08T10:10:40;99098.75;;;14.83;65.42
35489;BME280;21602;55.670;37.578;2023-09-08T10:13:12;99107.63;;;14.74;65.63
35489;BME280;21602;55.670;37.578;2023-09-08T10:15:42;99102.75;;;14.66;65.82
35489;BME280;21602;55.670;37.578;2023-09-08T10:18:10;99097.13;;;14.67;66.03
35489;BME280;21602;55.670;37.578;2023-09-08T10:20:41;99104.63;;;14.50;66.44
35489;BME280;21602;55.670;37.578;2023-09-08T10:23:52;99107.75;;;14.37;69.00
35489;BME280;21602;55.670;37.578;2023-09-08T10:26:23;99108.81;;;14.25;70.70
35489;BME280;21602;55.670;37.578;2023-09-08T10:28:55;99117.06;;;14.08;73.63
35489;BME280;21602;55.670;37.578;2023-09-08T10:31:29;99112.84;;;13.75;76.95
35489;BME280;21602;55.670;37.578;2023-09-08T10:33:56;99133.69;;;13.58;77.14
35489;BME280;21602;55.670;37.578;2023-09-08T10:36:25;99117.81;;;13.51;77.93
35489;BME280;21602;55.670;37.578;2023-09-08T10:38:54;99125.06;;;13.51;78.22
35489;BME280;21602;55.670;37.578;2023-09-08T10:41:28;99117.84;;;13.56;79.24
35489;BME280;21602;55.670;37.578;2023-09-08T10:44:01;99116.84;;;13.68;79.80
35489;BME280;21602;55.670;37.578;2023-09-08T10:46:28;99117.16;;;13.76;79.83
35489;BME280;21602;55.670;37.578;2023-09-08T10:49:06;99129.78;;;13.81;80.60
35489;BME280;21602;55.670;37.578;2023-09-08T10:51:35;99115.59;;;13.86;80.77
35489;BME280;21602;55.670;37.578;2023-09-08T10:54:03;99117.25;;;13.92;80.80
35489;BME280;21602;55.670;37.578;2023-09-08T10:56:54;99108.72;;;14.05;81.71
35489;BME280;21602;55.670;37.578;2023-09-08T10:59:27;99116.81;;;14.10;80.93
35489;BME280;21602;55.670;37.578;2023-09-08T11:01:54;99110.41;;;14.21;80.43
35489;BME280;21602;55.670;37.578;2023-09-08T11:04:24;99109.91;;;14.29;79.25
35489;BME280;21602;55.670;37.578;2023-09-08T11:06:50;99100.50;;;14.37;78.94
35489;BME280;21602;55.670;37.578;2023-09-08T11:09:19;99105.66;;;14.44;79.24
35489;BME280;21602;55.670;37.578;2023-09-08T11:11:46;99097.59;;;14.44;76.92
35489;BME280;21602;55.670;37.578;2023-09-08T11:14:14;99088.97;;;14.42;76.48
35489;BME280;21602;55.670;37.578;2023-09-08T11:16:42;99099.19;;;14.34;76.40
35489;BME280;21602;55.670;37.578;2023-09-08T11:19:13;99095.41;;;14.30;77.42
35489;BME280;21602;55.670;37.578;2023-09-08T11:21:39;99118.50;;;14.37;77.17
35489;BME280;21602;55.670;37.578;2023-09-08T11:24:08;99087.88;;;14.27;75.80
35489;BME280;21602;55.670;37.578;2023-09-08T11:26:37;99116.56;;;14.22;76.02
35489;BME280;21602;55.670;37.578;2023-09-08T11:29:05;99126.13;;;13.97;76.17
35489;BME280;21602;55.670;37.578;2023-09-08T11:31:34;99141.59;;;13.80;78.33
35489;BME280;21602;55.670;37.578;2023-09-08T11:34:00;99135.38;;;13.69;79.11
35489;BME280;21602;55.670;37.578;2023-09-08T11:36:26;99130.41;;;13.51;81.21
35489;BME280;21602;55.670;37.578;2023-09-08T11:38:57;99118.88;;;13.18;83.30
35489;BME280;21602;55.670;37.578;2023-09-08T11:41:23;99139.97;;;13.10;83.18
35489;BME280;21602;55.670;37.578;2023-09-08T11:43:52;99122.81;;;13.05;84.03
35489;BME280;21602;55.670;37.578;2023-09-08T11:46:18;99120.63;;;13.02;85.49
35489;BME280;21602;55.670;37.578;2023-09-08T11:48:44;99121.44;;;13.03;83.62
35489;BME280;21602;55.670;37.578;2023-09-08T11:51:13;99127.59;;;13.03;83.85
35489;BME280;21602;55.670;37.578;2023-09-08T11:53:42;99131.13;;;13.09;83.87
35489;BME280;21602;55.670;37.578;2023-09-08T11:56:09;99142.56;;;12.99;84.44
35489;BME280;21602;55.670;37.578;2023-09-08T11:58:35;99146.81;;;13.22;83.65
35489;BME280;21602;55.670;37.578;2023-09-08T12:01:03;99132.28;;;13.50;82.40
35489;BME280;21602;55.670;37.578;2023-09-08T12:03:30;99125.16;;;13.66;81.40
35489;BME280;21602;55.670;37.578;2023-09-08T12:05:56;99138.06;;;13.69;81.46
35489;BME280;21602;55.670;37.578;2023-09-08T12:08:25;99135.13;;;13.76;80.37
35489;BME280;21602;55.670;37.578;2023-09-08T12:10:55;99143.22;;;13.86;80.17
35489;BME280;21602;55.670;37.578;2023-09-08T12:13:22;99129.91;;;13.96;79.92
35489;BME280;21602;55.670;37.578;2023-09-08T12:15:53;99126.72;;;14.15;78.84
35489;BME280;21602;55.670;37.578;2023-09-08T12:18:19;99130.81;;;14.27;77.34
35489;BME280;21602;55.670;37.578;2023-09-08T12:21:06;99134.31;;;14.28;75.97
35489;BME280;21602;55.670;37.578;2023-09-08T12:23:48;99125.44;;;14.22;74.42
35489;BME280;21602;55.670;37.578;2023-09-08T12:26:15;99137.22;;;14.11;75.15
35489;BME280;21602;55.670;37.578;2023-09-08T12:28:42;99138.22;;;14.05;74.57
35489;BME280;21602;55.670;37.578;2023-09-08T12:31:09;99128.09;;;14.17;74.74
35489;BME280;21602;55.670;37.578;2023-09-08T12:33:37;99124.94;;;14.30;74.53
35489;BME280;21602;55.670;37.578;2023-09-08T12:36:17;99137.13;;;14.48;73.87
35489;BME280;21602;55.670;37.578;2023-09-08T12:38:53;99128.75;;;14.45;72.56
35489;BME280;21602;55.670;37.578;2023-09-08T12:41:19;99138.31;;;14.15;73.03
35489;BME280;21602;55.670;37.578;2023-09-08T12:43:55;99123.56;;;14.23;73.29
35489;BME280;21602;55.670;37.578;2023-09-08T12:46:25;99117.94;;;14.24;72.86
35489;BME280;21602;55.670;37.578;2023-09-08T12:48:51;99128.69;;;14.24;71.63
35489;BME280;21602;55.670;37.578;2023-09-08T12:51:20;99138.84;;;14.22;70.96
35489;BME280;21602;55.670;37.578;2023-09-08T12:53:46;99125.44;;;14.27;70.84
35489;BME280;21602;55.670;37.578;2023-09-08T12:56:16;99131.13;;;14.36;70.33
35489;BME280;21602;55.670;37.578;2023-09-08T12:58:46;99133.03;;;14.41;70.32
35489;BME280;21602;55.670;37.578;2023-09-08T13:01:13;99128.28;;;14.53;69.71